createdAt,value
2022-08-03T00:00:02.097Z,44.18
2022-08-03T00:01:02.070Z,44.19
2022-08-03T00:02:02.072Z,44.23
2022-08-03T00:03:02.187Z,44.2
2022-08-03T00:04:02.068Z,44.26
2022-08-03T00:05:02.077Z,44.23
2022-08-03T00:06:04.635Z,44.15
2022-08-03T00:07:02.061Z,44.24
2022-08-03T00:08:02.064Z,44.29
2022-08-03T00:09:02.071Z,44.15
2022-08-03T00:10:02.071Z,44.25
2022-08-03T00:11:02.073Z,44.26
2022-08-03T00:12:02.067Z,44.18
2022-08-03T00:13:02.058Z,44.23
2022-08-03T00:14:02.077Z,44.27
2022-08-03T00:15:02.058Z,44.33
2022-08-03T00:16:02.054Z,44.28
2022-08-03T00:17:02.051Z,44.39
2022-08-03T00:18:02.065Z,44.36
2022-08-03T00:19:02.060Z,44.33
2022-08-03T00:20:02.057Z,44.32
2022-08-03T00:21:02.062Z,44.41
2022-08-03T00:22:02.048Z,44.43
2022-08-03T00:23:02.049Z,44.42
2022-08-03T00:24:02.059Z,44.45
2022-08-03T00:25:02.059Z,44.42
2022-08-03T00:26:02.046Z,44.35
2022-08-03T00:27:02.047Z,44.33
2022-08-03T00:28:02.039Z,44.35
2022-08-03T00:29:02.055Z,44.37
2022-08-03T00:30:02.045Z,44.41
2022-08-03T00:31:02.061Z,44.33
2022-08-03T00:32:02.035Z,44.44
2022-08-03T00:33:02.039Z,44.42
2022-08-03T00:34:03.490Z,44.39
2022-08-03T00:35:08.369Z,44.45
2022-08-03T00:36:02.028Z,44.1
2022-08-03T00:37:02.031Z,44.39
2022-08-03T00:38:02.033Z,44.47
2022-08-03T00:39:02.032Z,44.34
2022-08-03T00:40:03.581Z,44.45
2022-08-03T00:41:02.028Z,44.5
2022-08-03T00:42:02.018Z,44.51
2022-08-03T00:43:02.028Z,44.56
2022-08-03T00:44:02.027Z,44.51
2022-08-03T00:45:02.047Z,44.53
2022-08-03T00:46:02.018Z,44.54
2022-08-03T00:47:02.021Z,44.59
2022-08-03T00:48:02.017Z,44.62
2022-08-03T00:49:02.130Z,44.6
2022-08-03T00:50:02.030Z,44.66
2022-08-03T00:51:02.014Z,44.56
2022-08-03T00:52:09.537Z,44.6
2022-08-03T00:53:02.015Z,44.3
2022-08-03T00:54:02.010Z,44.62
2022-08-03T00:55:02.016Z,44.64
2022-08-03T00:56:02.017Z,44.64
2022-08-03T00:57:02.010Z,44.66
2022-08-03T00:58:02.011Z,44.68
2022-08-03T00:59:02.009Z,44.55
2022-08-03T01:00:02.022Z,44.64
2022-08-03T01:01:02.075Z,44.69
2022-08-03T01:02:02.000Z,44.73
2022-08-03T01:03:02.005Z,44.72
2022-08-03T01:04:01.999Z,44.75
2022-08-03T01:05:03.400Z,44.8
2022-08-03T01:06:02.016Z,44.76
2022-08-03T01:07:01.999Z,44.79
2022-08-03T01:08:01.999Z,44.85
2022-08-03T01:09:01.997Z,44.72
2022-08-03T01:10:02.000Z,44.82
2022-08-03T01:11:02.003Z,44.59
2022-08-03T01:12:02.054Z,44.86
2022-08-03T01:13:01.995Z,44.83
2022-08-03T01:14:18.183Z,44.91
2022-08-03T01:15:01.991Z,44.89
2022-08-03T01:16:01.994Z,44.92
2022-08-03T01:17:01.989Z,44.76
2022-08-03T01:18:01.998Z,44.89
2022-08-03T01:19:01.987Z,44.84
2022-08-03T01:20:02.069Z,44.9
2022-08-03T01:21:01.983Z,44.92
2022-08-03T01:22:01.975Z,44.94
2022-08-03T01:23:01.994Z,45
2022-08-03T01:24:01.983Z,45
2022-08-03T01:25:01.989Z,44.94
2022-08-03T01:26:02.005Z,45.03
2022-08-03T01:27:02.606Z,44.99
2022-08-03T01:28:01.974Z,44.91
2022-08-03T01:29:01.971Z,44.8
2022-08-03T01:30:01.971Z,45.03
2022-08-03T01:31:02.055Z,45.03
2022-08-03T01:33:00.249Z,45.05
2022-08-03T01:33:02.415Z,45.07
2022-08-03T01:34:01.967Z,45.01
2022-08-03T01:35:01.963Z,45
2022-08-03T01:36:01.974Z,45.07
2022-08-03T01:37:01.963Z,44.99
2022-08-03T01:38:01.984Z,45.11
2022-08-03T01:39:01.958Z,45.11
2022-08-03T01:40:01.971Z,45
2022-08-03T01:41:01.965Z,45.12
2022-08-03T01:42:01.955Z,45.17
2022-08-03T01:43:01.956Z,45.18
2022-08-03T01:44:29.546Z,45.21
2022-08-03T01:45:01.962Z,44.81
2022-08-03T01:46:01.966Z,45.16
2022-08-03T01:47:01.953Z,45.02
2022-08-03T01:48:01.964Z,45.2
2022-08-03T01:49:09.146Z,45.17
2022-08-03T01:50:01.954Z,45.23
2022-08-03T01:51:01.949Z,45.18
2022-08-03T01:52:04.409Z,45.19
2022-08-03T01:53:01.953Z,45.25
2022-08-03T01:54:01.938Z,45.27
2022-08-03T01:55:01.945Z,45.22
2022-08-03T01:56:01.940Z,45.24
2022-08-03T01:57:01.941Z,44.88
2022-08-03T01:58:05.800Z,45.22
2022-08-03T01:59:01.934Z,45.28
2022-08-03T02:00:01.938Z,45.33
2022-08-03T02:01:01.982Z,45.35
2022-08-03T02:02:15.355Z,45.34
2022-08-03T02:03:01.948Z,45.33
2022-08-03T02:04:01.932Z,45.25
2022-08-03T02:05:01.958Z,45.28
2022-08-03T02:07:00.420Z,45.35
2022-08-03T02:07:03.292Z,45.37
2022-08-03T02:08:01.927Z,45.4
2022-08-03T02:09:01.935Z,45.26
2022-08-03T02:10:01.929Z,45.38
2022-08-03T02:11:01.925Z,45.28
2022-08-03T02:12:01.916Z,45.39
2022-08-03T02:13:01.931Z,45.43
2022-08-03T02:14:01.917Z,45.41
2022-08-03T02:15:01.928Z,45.44
2022-08-03T02:16:01.916Z,45.44
2022-08-03T02:17:01.925Z,45.53
2022-08-03T02:18:01.915Z,45.51
2022-08-03T02:19:01.909Z,44.96
2022-08-03T02:20:01.925Z,45.52
2022-08-03T02:21:01.913Z,45.54
2022-08-03T02:22:02.058Z,45.53
2022-08-03T02:23:01.917Z,45.17
2022-08-03T02:24:01.903Z,45.41
2022-08-03T02:25:01.922Z,45.46
2022-08-03T02:26:02.076Z,45.52
2022-08-03T02:27:01.909Z,45.06
2022-08-03T02:28:01.902Z,45.42
2022-08-03T02:29:01.927Z,45.45
2022-08-03T02:30:01.912Z,45.5
2022-08-03T02:31:01.970Z,44.45
2022-08-03T02:32:01.903Z,44.93
2022-08-03T02:33:01.903Z,44.66
2022-08-03T02:34:01.892Z,45.25
2022-08-03T02:35:01.897Z,44.82
2022-08-03T02:36:01.903Z,45.46
2022-08-03T02:37:01.889Z,45.14
2022-08-03T02:38:01.890Z,45.45
2022-08-03T02:39:01.906Z,45.08
2022-08-03T02:40:01.892Z,45.17
2022-08-03T02:41:01.898Z,44.55
2022-08-03T02:42:01.888Z,45.21
2022-08-03T02:43:01.884Z,44.55
2022-08-03T02:44:07.073Z,45.44
2022-08-03T02:45:01.898Z,45.4
2022-08-03T02:46:01.894Z,45.4
2022-08-03T02:47:01.879Z,44.83
2022-08-03T02:48:01.882Z,45.5
2022-08-03T02:49:41.373Z,45.22
2022-08-03T02:50:01.920Z,45.63
2022-08-03T02:51:01.873Z,45.24
2022-08-03T02:52:01.877Z,45.73
2022-08-03T02:53:01.877Z,44.83
2022-08-03T02:54:01.883Z,45.26
2022-08-03T02:55:01.882Z,45.01
2022-08-03T02:56:01.873Z,45.19
2022-08-03T02:57:01.869Z,44.4
2022-08-03T02:58:01.868Z,45.54
2022-08-03T02:59:01.874Z,44.58
2022-08-03T03:00:01.874Z,45.21
2022-08-03T03:01:01.944Z,44.87
2022-08-03T03:02:01.857Z,45.26
2022-08-03T03:03:01.864Z,45.64
2022-08-03T03:04:01.913Z,45.45
2022-08-03T03:05:51.765Z,44.95
2022-08-03T03:06:01.858Z,45.54
2022-08-03T03:07:03.719Z,44.59
2022-08-03T03:08:01.866Z,45.38
2022-08-03T03:09:01.860Z,44.67
2022-08-03T03:10:01.871Z,45.6
2022-08-03T03:11:01.859Z,44.91
2022-08-03T03:12:01.854Z,45.18
2022-08-03T03:13:01.856Z,44.54
2022-08-03T03:14:01.846Z,45.57
2022-08-03T03:15:01.858Z,45.1
2022-08-03T03:16:01.849Z,45.37
2022-08-03T03:17:01.862Z,44.52
2022-08-03T03:18:01.844Z,45.28
2022-08-03T03:19:01.848Z,44.92
2022-08-03T03:20:01.841Z,45.29
2022-08-03T03:21:01.840Z,44.78
2022-08-03T03:22:01.855Z,45.46
2022-08-03T03:23:01.834Z,45.08
2022-08-03T03:24:01.846Z,45.35
2022-08-03T03:25:01.843Z,44.92
2022-08-03T03:26:01.841Z,45.34
2022-08-03T03:27:01.837Z,44.65
2022-08-03T03:28:02.101Z,45.27
2022-08-03T03:29:01.834Z,44.64
2022-08-03T03:30:01.829Z,45.67
2022-08-03T03:31:01.916Z,44.9
2022-08-03T03:32:02.702Z,45.55
2022-08-03T03:33:01.834Z,45.06
2022-08-03T03:34:01.828Z,45.79
2022-08-03T03:35:01.832Z,45.32
2022-08-03T03:36:01.852Z,45.58
2022-08-03T03:37:01.827Z,44.81
2022-08-03T03:38:01.826Z,45.11
2022-08-03T03:39:15.071Z,44.82
2022-08-03T03:40:04.469Z,45.74
2022-08-03T03:41:01.830Z,44.43
2022-08-03T03:42:01.821Z,45.64
2022-08-03T03:43:01.814Z,44.58
2022-08-03T03:44:01.826Z,45.16
2022-08-03T03:45:01.822Z,45.18
2022-08-03T03:46:01.808Z,45.4
2022-08-03T03:47:01.815Z,44.39
2022-08-03T03:48:01.810Z,45.41
2022-08-03T03:49:01.894Z,44.4
2022-08-03T03:50:03.986Z,45.67
2022-08-03T03:51:01.804Z,44.93
2022-08-03T03:52:01.824Z,45.83
2022-08-03T03:53:01.805Z,45.04
2022-08-03T03:54:01.803Z,45.61
2022-08-03T03:55:01.995Z,45.79
2022-08-03T03:56:03.085Z,45.82
2022-08-03T03:57:01.809Z,44.74
2022-08-03T03:58:01.796Z,45.74
2022-08-03T03:59:01.807Z,45.06
2022-08-03T04:00:01.801Z,45.16
2022-08-03T04:01:01.976Z,45.44
2022-08-03T04:02:01.792Z,45.66
2022-08-03T04:03:01.791Z,45.35
2022-08-03T04:04:01.792Z,45.73
2022-08-03T04:05:01.799Z,44.71
2022-08-03T04:06:01.792Z,45.41
2022-08-03T04:07:01.783Z,45.14
2022-08-03T04:08:01.784Z,45.78
2022-08-03T04:09:01.780Z,45.04
2022-08-03T04:10:07.852Z,45.89
2022-08-03T04:11:01.795Z,45.07
2022-08-03T04:12:01.789Z,45.93
2022-08-03T04:13:01.788Z,44.97
2022-08-03T04:14:02.214Z,45.56
2022-08-03T04:15:01.783Z,45.25
2022-08-03T04:16:01.790Z,46.33
2022-08-03T04:17:01.772Z,46.28
2022-08-03T04:18:01.770Z,45.95
2022-08-03T04:19:01.773Z,47.99
2022-08-03T04:20:01.775Z,49.15
2022-08-03T04:21:02.302Z,48.59
2022-08-03T04:22:01.765Z,48.84
2022-08-03T04:23:01.769Z,48.99
2022-08-03T04:24:01.765Z,49.8
2022-08-03T04:25:01.777Z,49.77
2022-08-03T04:26:01.767Z,49.71
2022-08-03T04:27:01.770Z,49.46
2022-08-03T04:28:08.000Z,49.66
2022-08-03T04:29:04.696Z,49.61
2022-08-03T04:30:01.771Z,49.7
2022-08-03T04:31:01.756Z,49.74
2022-08-03T04:32:03.052Z,49.61
2022-08-03T04:33:01.755Z,48.96
2022-08-03T04:34:01.757Z,48.12
2022-08-03T04:35:01.769Z,48.06
2022-08-03T04:36:03.594Z,48.31
2022-08-03T04:37:01.765Z,48.77
2022-08-03T04:38:01.748Z,49.94
2022-08-03T04:39:01.749Z,49.35
2022-08-03T04:40:01.757Z,50.36
2022-08-03T04:41:01.753Z,51.23
2022-08-03T04:42:04.394Z,50.93
2022-08-03T04:43:01.743Z,50.51
2022-08-03T04:44:01.739Z,50.55
2022-08-03T04:45:02.011Z,50.54
2022-08-03T04:46:01.901Z,50.12
2022-08-03T04:47:01.735Z,50.13
2022-08-03T04:48:02.958Z,50.48
2022-08-03T04:49:01.823Z,51
2022-08-03T04:50:03.910Z,50.53
2022-08-03T04:51:01.760Z,50.16
2022-08-03T04:52:01.746Z,50.03
2022-08-03T04:53:01.738Z,50.32
2022-08-03T04:54:01.736Z,50.12
2022-08-03T04:55:01.737Z,50.31
2022-08-03T04:56:01.748Z,50.02
2022-08-03T04:57:01.734Z,50.49
2022-08-03T04:58:01.736Z,50.49
2022-08-03T04:59:01.728Z,50.01
2022-08-03T05:00:03.456Z,50.35
2022-08-03T05:01:01.740Z,50.37
2022-08-03T05:02:01.808Z,50.55
2022-08-03T05:03:01.740Z,49.55
2022-08-03T05:04:01.727Z,49.73
2022-08-03T05:05:01.722Z,48.82
2022-08-03T05:06:09.630Z,51.55
2022-08-03T05:07:12.532Z,52.1
2022-08-03T05:08:01.715Z,52.45
2022-08-03T05:09:01.720Z,52.36
2022-08-03T05:10:03.390Z,52.88
2022-08-03T05:11:01.749Z,53.07
2022-08-03T05:12:01.717Z,52.21
2022-08-03T05:13:01.726Z,51.95
2022-08-03T05:14:01.710Z,51.15
2022-08-03T05:15:01.714Z,51.46
2022-08-03T05:16:01.723Z,51.17
2022-08-03T05:17:01.714Z,51.08
2022-08-03T05:18:01.710Z,51.38
2022-08-03T05:19:01.746Z,51.81
2022-08-03T05:20:01.714Z,51.96
2022-08-03T05:21:01.720Z,51.93
2022-08-03T05:22:01.712Z,51.13
2022-08-03T05:23:01.704Z,51.47
2022-08-03T05:24:01.712Z,50.91
2022-08-03T05:25:01.713Z,50.67
2022-08-03T05:26:01.700Z,50.32
2022-08-03T05:27:01.706Z,50.22
2022-08-03T05:28:01.701Z,50.71
2022-08-03T05:29:01.698Z,50.66
2022-08-03T05:30:29.703Z,52.07
2022-08-03T05:31:01.700Z,51.51
2022-08-03T05:32:06.232Z,51.29
2022-08-03T05:33:04.608Z,50.01
2022-08-03T05:34:01.703Z,50.57
2022-08-03T05:35:55.788Z,50.8
2022-08-03T05:36:04.151Z,51.14
2022-08-03T05:37:01.696Z,51.82
2022-08-03T05:38:01.692Z,52.03
2022-08-03T05:39:04.525Z,51.93
2022-08-03T05:40:01.680Z,51.54
2022-08-03T05:41:23.302Z,50.84
2022-08-03T05:42:01.697Z,51.35
2022-08-03T05:43:01.676Z,50.11
2022-08-03T05:44:01.694Z,51.44
2022-08-03T05:45:01.681Z,52.36
2022-08-03T05:46:12.049Z,52.84
2022-08-03T05:47:01.677Z,52.13
2022-08-03T05:48:01.674Z,52.24
2022-08-03T05:49:01.777Z,51.13
2022-08-03T05:50:01.679Z,51.84
2022-08-03T05:51:01.685Z,51.45
2022-08-03T05:52:14.234Z,51.36
2022-08-03T05:53:02.190Z,49.68
2022-08-03T05:54:01.674Z,50.97
2022-08-03T05:55:01.671Z,51.51
2022-08-03T05:56:13.195Z,52.8
2022-08-03T05:57:01.677Z,52.74
2022-08-03T05:58:01.665Z,53.1
2022-08-03T05:59:11.541Z,53.56
2022-08-03T06:00:01.676Z,53.31
2022-08-03T06:01:01.660Z,52.87
2022-08-03T06:02:01.764Z,52.49
2022-08-03T06:03:01.657Z,52.42
2022-08-03T06:04:01.657Z,52.94
2022-08-03T06:05:01.666Z,53.35
2022-08-03T06:06:01.656Z,54.16
2022-08-03T06:07:01.663Z,54.27
2022-08-03T06:08:01.654Z,53.35
2022-08-03T06:09:01.649Z,52.5
2022-08-03T06:10:35.738Z,52.75
2022-08-03T06:11:01.651Z,53.43
2022-08-03T06:12:01.654Z,53.23
2022-08-03T06:13:01.663Z,52.92
2022-08-03T06:14:01.642Z,52.93
2022-08-03T06:15:01.649Z,52.42
2022-08-03T06:16:01.644Z,52.93
2022-08-03T06:17:01.645Z,52.29
2022-08-03T06:18:02.198Z,53.37
2022-08-03T06:19:01.647Z,53.21
2022-08-03T06:20:01.654Z,53.14
2022-08-03T06:21:14.651Z,52.72
2022-08-03T06:22:01.637Z,53.13
2022-08-03T06:23:01.649Z,52.74
2022-08-03T06:24:02.515Z,52.28
2022-08-03T06:25:04.938Z,51.39
2022-08-03T06:26:01.633Z,50.78
2022-08-03T06:27:01.635Z,51.6
2022-08-03T06:28:01.636Z,52.01
2022-08-03T06:29:01.628Z,51.08
2022-08-03T06:30:01.655Z,52.72
2022-08-03T06:31:01.639Z,52.44
2022-08-03T06:32:01.625Z,52.9
2022-08-03T06:33:01.656Z,52.33
2022-08-03T06:34:33.027Z,52.34
2022-08-03T06:35:01.637Z,51.69
2022-08-03T06:36:01.622Z,52.23
2022-08-03T06:37:02.434Z,52.35
2022-08-03T06:38:01.628Z,50.71
2022-08-03T06:39:01.617Z,52.2
2022-08-03T06:40:01.611Z,52
2022-08-03T06:41:01.614Z,52.94
2022-08-03T06:42:01.612Z,53.4
2022-08-03T06:43:01.626Z,54.02
2022-08-03T06:44:03.116Z,54.04
2022-08-03T06:45:01.615Z,52.43
2022-08-03T06:46:01.627Z,53.11
2022-08-03T06:47:01.603Z,53.67
2022-08-03T06:48:01.612Z,52.96
2022-08-03T06:49:01.669Z,53.18
2022-08-03T06:50:12.680Z,53.32
2022-08-03T06:51:01.620Z,52.41
2022-08-03T06:52:04.977Z,52.75
2022-08-03T06:53:01.606Z,53.25
2022-08-03T06:54:01.601Z,53.68
2022-08-03T06:55:01.600Z,53.37
2022-08-03T06:56:01.607Z,53.46
2022-08-03T06:57:01.595Z,52.68
2022-08-03T06:58:03.361Z,52.69
2022-08-03T06:59:01.595Z,52.38
2022-08-03T07:00:09.298Z,52.45
2022-08-03T07:01:01.633Z,52.4
2022-08-03T07:02:01.601Z,52.34
2022-08-03T07:03:01.601Z,52.95
2022-08-03T07:04:01.593Z,53.07
2022-08-03T07:05:01.588Z,53.19
2022-08-03T07:06:01.582Z,53.19
2022-08-03T07:07:01.587Z,53
2022-08-03T07:08:01.598Z,52.21
2022-08-03T07:09:01.579Z,52.15
2022-08-03T07:10:02.353Z,52.91
2022-08-03T07:11:01.669Z,51.75
2022-08-03T07:12:01.580Z,51.37
2022-08-03T07:13:01.579Z,52.29
2022-08-03T07:14:01.573Z,52
2022-08-03T07:15:02.966Z,52.28
2022-08-03T07:16:01.594Z,53.47
2022-08-03T07:17:01.570Z,53.17
2022-08-03T07:18:01.572Z,52.24
2022-08-03T07:19:01.573Z,52.71
2022-08-03T07:20:01.676Z,52.04
2022-08-03T07:21:01.577Z,52.6
2022-08-03T07:22:11.396Z,52.26
2022-08-03T07:23:01.570Z,52.11
2022-08-03T07:24:01.574Z,51.85
2022-08-03T07:25:01.579Z,51.62
2022-08-03T07:26:01.558Z,51.73
2022-08-03T07:27:01.561Z,51.78
2022-08-03T07:28:01.577Z,52.21
2022-08-03T07:29:01.563Z,52.87
2022-08-03T07:30:01.572Z,51.96
2022-08-03T07:31:01.556Z,51.03
2022-08-03T07:32:01.554Z,51.14
2022-08-03T07:33:01.585Z,50.9
2022-08-03T07:34:01.565Z,51.95
2022-08-03T07:35:01.859Z,51.34
2022-08-03T07:36:01.558Z,51.14
2022-08-03T07:37:01.551Z,51.25
2022-08-03T07:38:01.563Z,51.85
2022-08-03T07:39:01.553Z,51.7
2022-08-03T07:40:01.550Z,51.74
2022-08-03T07:41:01.558Z,51.16
2022-08-03T07:42:01.550Z,52.62
2022-08-03T07:43:01.545Z,52.02
2022-08-03T07:44:01.543Z,51.19
2022-08-03T07:45:01.544Z,50.96
2022-08-03T07:46:01.550Z,51.84
2022-08-03T07:47:03.403Z,51.6
2022-08-03T07:48:01.533Z,51.31
2022-08-03T07:49:01.613Z,51.99
2022-08-03T07:50:01.548Z,51.19
2022-08-03T07:51:01.548Z,50.22
2022-08-03T07:52:01.544Z,49.76
2022-08-03T07:53:01.543Z,49.61
2022-08-03T07:54:01.561Z,49.21
2022-08-03T07:55:01.543Z,49.01
2022-08-03T07:56:01.566Z,49.22
2022-08-03T07:57:01.535Z,48.9
2022-08-03T07:58:01.549Z,48.67
2022-08-03T07:59:01.528Z,48.73
2022-08-03T08:00:02.728Z,48.6
2022-08-03T08:01:01.608Z,48.4
2022-08-03T08:02:01.521Z,48.49
2022-08-03T08:03:01.523Z,48.38
2022-08-03T08:04:01.528Z,48.32
2022-08-03T08:05:05.457Z,48.3
2022-08-03T08:06:01.510Z,48.09
2022-08-03T08:07:01.536Z,47.86
2022-08-03T08:08:01.512Z,47.89
2022-08-03T08:09:01.522Z,47.83
2022-08-03T08:10:01.515Z,47.46
2022-08-03T08:11:01.509Z,47.6
2022-08-03T08:12:01.507Z,47.46
2022-08-03T08:13:01.509Z,47.39
2022-08-03T08:14:01.529Z,47.33
2022-08-03T08:15:01.509Z,47.23
2022-08-03T08:16:01.504Z,46.99
2022-08-03T08:17:04.437Z,46.84
2022-08-03T08:18:01.504Z,46.83
2022-08-03T08:19:01.521Z,46.85
2022-08-03T08:20:01.499Z,46.67
2022-08-03T08:21:01.554Z,46.61
2022-08-03T08:22:01.883Z,46.46
2022-08-03T08:23:02.722Z,46.62
2022-08-03T08:24:01.498Z,46.15
2022-08-03T08:25:01.742Z,46.14
2022-08-03T08:26:01.504Z,46.11
2022-08-03T08:27:01.489Z,46.18
2022-08-03T08:28:29.586Z,46.16
2022-08-03T08:29:01.515Z,46.01
2022-08-03T08:30:10.394Z,45.85
2022-08-03T08:31:01.510Z,45.89
2022-08-03T08:32:01.487Z,45.96
2022-08-03T08:33:01.514Z,45.81
2022-08-03T08:34:04.008Z,45.9
2022-08-03T08:35:01.496Z,45.76
2022-08-03T08:36:01.490Z,45.54
2022-08-03T08:37:01.485Z,45.63
2022-08-03T08:38:05.924Z,45.25
2022-08-03T08:39:01.478Z,45.65
2022-08-03T08:40:01.489Z,45.46
2022-08-03T08:41:01.476Z,45.24
2022-08-03T08:42:01.473Z,45.38
2022-08-03T08:43:01.480Z,45.27
2022-08-03T08:44:01.475Z,45.19
2022-08-03T08:45:01.474Z,44.91
2022-08-03T08:46:01.482Z,45.06
2022-08-03T08:47:01.488Z,45.03
2022-08-03T08:48:05.410Z,45.13
2022-08-03T08:49:04.701Z,45.07
2022-08-03T08:50:10.035Z,45.27
2022-08-03T08:51:01.468Z,45.16
2022-08-03T08:52:01.785Z,45.29
2022-08-03T08:53:01.469Z,45.09
2022-08-03T08:54:01.476Z,46.24
2022-08-03T08:55:01.460Z,46.93
2022-08-03T08:56:01.711Z,47.34
2022-08-03T08:57:01.467Z,47.84
2022-08-03T08:58:01.464Z,48.05
2022-08-03T08:59:01.465Z,47.82
2022-08-03T09:00:01.455Z,48.21
2022-08-03T09:01:01.542Z,48.05
2022-08-03T09:02:01.447Z,46.89
2022-08-03T09:03:01.457Z,47.46
2022-08-03T09:04:01.453Z,47.84
2022-08-03T09:05:06.876Z,48.45
2022-08-03T09:06:01.448Z,48.32
2022-08-03T09:07:19.222Z,48.93
2022-08-03T09:08:01.447Z,49.28
2022-08-03T09:09:01.444Z,48.95
2022-08-03T09:10:11.218Z,48.69
2022-08-03T09:11:01.458Z,49.24
2022-08-03T09:12:27.169Z,49.14
2022-08-03T09:13:01.444Z,49.51
2022-08-03T09:14:01.444Z,49.26
2022-08-03T09:15:16.695Z,48.59
2022-08-03T09:16:01.699Z,49.31
2022-08-03T09:17:01.437Z,48.62
2022-08-03T09:18:01.437Z,48.77
2022-08-03T09:19:01.433Z,47.46
2022-08-03T09:20:03.110Z,47.89
2022-08-03T09:21:14.779Z,48.19
2022-08-03T09:22:01.434Z,48.04
2022-08-03T09:23:01.442Z,47.43
2022-08-03T09:24:03.363Z,47.01
2022-08-03T09:25:23.486Z,47.78
2022-08-03T09:26:01.433Z,48.13
2022-08-03T09:27:01.423Z,46.9
2022-08-03T09:28:01.424Z,47.67
2022-08-03T09:29:05.928Z,47.53
2022-08-03T09:30:01.433Z,47.62
2022-08-03T09:31:01.411Z,47.35
2022-08-03T09:32:01.412Z,46.95
2022-08-03T09:33:01.449Z,47.29
2022-08-03T09:34:01.412Z,47.48
2022-08-03T09:35:01.441Z,46.55
2022-08-03T09:36:01.412Z,47.03
2022-08-03T09:37:01.411Z,45.93
2022-08-03T09:38:13.898Z,46.48
2022-08-03T09:39:01.426Z,46.56
2022-08-03T09:40:01.416Z,47.01
2022-08-03T09:41:01.403Z,46.56
2022-08-03T09:42:01.416Z,47.09
2022-08-03T09:43:01.406Z,46.03
2022-08-03T09:44:01.752Z,46.31
2022-08-03T09:45:01.403Z,45.3
2022-08-03T09:46:01.403Z,45.82
2022-08-03T09:47:01.400Z,45.61
2022-08-03T09:48:01.397Z,45.73
2022-08-03T09:49:01.473Z,47.28
2022-08-03T09:50:01.402Z,48.55
2022-08-03T09:51:12.809Z,49.12
2022-08-03T09:52:31.766Z,50.14
2022-08-03T09:53:01.392Z,50.23
2022-08-03T09:54:01.400Z,49.92
2022-08-03T09:55:01.403Z,49.47
2022-08-03T09:56:34.684Z,50.16
2022-08-03T09:57:01.384Z,49.06
2022-08-03T09:58:01.395Z,48.86
2022-08-03T09:59:01.389Z,48.48
2022-08-03T10:00:07.677Z,48.51
2022-08-03T10:01:01.474Z,48.87
2022-08-03T10:02:01.381Z,48.84
2022-08-03T10:03:01.392Z,49.25
2022-08-03T10:04:03.288Z,49.36
2022-08-03T10:05:01.384Z,49.48
2022-08-03T10:06:01.374Z,49.02
2022-08-03T10:07:01.393Z,49.14
2022-08-03T10:08:01.369Z,48.97
2022-08-03T10:09:01.397Z,48.56
2022-08-03T10:10:30.157Z,48.71
2022-08-03T10:11:01.382Z,48.18
2022-08-03T10:12:01.382Z,48.19
2022-08-03T10:13:01.370Z,48.28
2022-08-03T10:14:01.693Z,47.85
2022-08-03T10:15:01.371Z,47.41
2022-08-03T10:16:21.660Z,46.9
2022-08-03T10:17:01.397Z,47.02
2022-08-03T10:18:01.366Z,47.63
2022-08-03T10:19:01.363Z,47.78
2022-08-03T10:20:01.361Z,48.68
2022-08-03T10:21:01.369Z,48.24
2022-08-03T10:22:01.371Z,47.49
2022-08-03T10:23:01.358Z,46.8
2022-08-03T10:24:01.354Z,46.74
2022-08-03T10:25:01.391Z,46.57
2022-08-03T10:26:01.368Z,46.63
2022-08-03T10:27:01.360Z,47.73
2022-08-03T10:28:01.355Z,47.3
2022-08-03T10:29:01.352Z,47.12
2022-08-03T10:30:01.362Z,47.22
2022-08-03T10:31:01.356Z,47.24
2022-08-03T10:32:01.349Z,47.74
2022-08-03T10:33:01.410Z,47.06
2022-08-03T10:34:01.340Z,46.49
2022-08-03T10:35:18.908Z,48.54
2022-08-03T10:36:01.336Z,49.45
2022-08-03T10:37:01.353Z,49.72
2022-08-03T10:38:01.346Z,50.46
2022-08-03T10:39:01.335Z,50.46
2022-08-03T10:40:01.342Z,50.53
2022-08-03T10:41:01.341Z,50.65
2022-08-03T10:42:02.538Z,50.63
2022-08-03T10:43:01.345Z,50.79
2022-08-03T10:44:01.348Z,50.46
2022-08-03T10:45:01.354Z,49.86
2022-08-03T10:46:01.327Z,49.6
2022-08-03T10:47:01.327Z,50.61
2022-08-03T10:48:01.348Z,50.25
2022-08-03T10:49:01.504Z,49.57
2022-08-03T10:50:01.327Z,49.81
2022-08-03T10:51:01.328Z,49.53
2022-08-03T10:52:01.334Z,49.19
2022-08-03T10:53:01.934Z,49.57
2022-08-03T10:54:01.691Z,49.35
2022-08-03T10:55:03.351Z,48.57
2022-08-03T10:56:01.705Z,47.79
2022-08-03T10:57:13.355Z,48.41
2022-08-03T10:58:01.317Z,48.1
2022-08-03T10:59:03.936Z,48.67
2022-08-03T11:00:01.326Z,48.24
2022-08-03T11:01:01.387Z,47.98
2022-08-03T11:02:01.448Z,47.83
2022-08-03T11:03:01.312Z,47.88
2022-08-03T11:04:03.075Z,48.59
2022-08-03T11:05:01.322Z,47.88
2022-08-03T11:06:01.309Z,48.78
2022-08-03T11:07:01.308Z,48.1
2022-08-03T11:08:01.311Z,48.11
2022-08-03T11:09:01.330Z,47.43
2022-08-03T11:10:01.301Z,48.15
2022-08-03T11:11:01.326Z,47.8
2022-08-03T11:12:01.324Z,47.55
2022-08-03T11:13:01.304Z,47.66
2022-08-03T11:14:01.322Z,47.12
2022-08-03T11:15:01.322Z,47.3
2022-08-03T11:16:02.366Z,46.45
2022-08-03T11:17:01.315Z,47.3
2022-08-03T11:18:01.307Z,47.25
2022-08-03T11:19:01.301Z,47.43
2022-08-03T11:20:01.301Z,47.01
2022-08-03T11:21:01.314Z,47.28
2022-08-03T11:22:01.293Z,47.01
2022-08-03T11:23:01.284Z,46.52
2022-08-03T11:24:02.934Z,47.85
2022-08-03T11:25:01.319Z,46.82
2022-08-03T11:26:01.279Z,47.74
2022-08-03T11:27:05.744Z,47.24
2022-08-03T11:28:01.279Z,46.87
2022-08-03T11:29:01.277Z,46.7
2022-08-03T11:30:01.301Z,46.16
2022-08-03T11:31:01.285Z,47.09
2022-08-03T11:32:01.273Z,46.92
2022-08-03T11:33:01.298Z,46.13
2022-08-03T11:34:01.269Z,47.64
2022-08-03T11:35:01.279Z,48.3
2022-08-03T11:36:01.282Z,47.94
2022-08-03T11:37:01.282Z,48.09
2022-08-03T11:38:01.975Z,47.84
2022-08-03T11:39:01.277Z,47.61
2022-08-03T11:40:02.750Z,47.56
2022-08-03T11:41:01.263Z,47.65
2022-08-03T11:42:01.272Z,47.2
2022-08-03T11:43:01.270Z,47.73
2022-08-03T11:44:01.270Z,47.81
2022-08-03T11:45:01.266Z,47.62
2022-08-03T11:46:01.277Z,46.38
2022-08-03T11:47:01.260Z,46.33
2022-08-03T11:48:01.266Z,46.38
2022-08-03T11:49:01.314Z,46.23
2022-08-03T11:50:01.265Z,46.87
2022-08-03T11:51:01.256Z,46.63
2022-08-03T11:52:01.255Z,46.51
2022-08-03T11:53:01.262Z,47.22
2022-08-03T11:54:01.251Z,46.69
2022-08-03T11:55:01.269Z,46.69
2022-08-03T11:56:01.246Z,47.83
2022-08-03T11:57:01.257Z,47.15
2022-08-03T11:59:01.191Z,46.96
2022-08-03T11:59:19.924Z,47.76
2022-08-03T12:00:01.251Z,49.18
2022-08-03T12:01:01.244Z,47.2
2022-08-03T12:02:01.245Z,46.73
2022-08-03T12:03:01.307Z,46.15
2022-08-03T12:04:01.255Z,46.37
2022-08-03T12:05:01.250Z,45.99
2022-08-03T12:06:01.245Z,45.92
2022-08-03T12:07:01.233Z,45.89
2022-08-03T12:08:04.925Z,45.94
2022-08-03T12:09:01.233Z,45.86
2022-08-03T12:10:01.244Z,45.91
2022-08-03T12:11:01.244Z,45.92
2022-08-03T12:12:01.416Z,45.59
2022-08-03T12:13:01.234Z,45.77
2022-08-03T12:14:44.171Z,45.89
2022-08-03T12:15:01.231Z,45.87
2022-08-03T12:16:01.236Z,45.76
2022-08-03T12:17:01.224Z,45.65
2022-08-03T12:18:01.227Z,45.75
2022-08-03T12:19:01.225Z,45.89
2022-08-03T12:20:01.233Z,45.83
2022-08-03T12:21:01.240Z,45.84
2022-08-03T12:22:01.213Z,45.67
2022-08-03T12:23:01.218Z,45.74
2022-08-03T12:24:01.243Z,45.77
2022-08-03T12:25:01.226Z,45.65
2022-08-03T12:26:01.214Z,45.76
2022-08-03T12:27:01.216Z,45.38
2022-08-03T12:28:01.215Z,45.49
2022-08-03T12:29:01.220Z,45.55
2022-08-03T12:30:01.207Z,45.4
2022-08-03T12:31:01.224Z,45.39
2022-08-03T12:32:01.210Z,45.34
2022-08-03T12:33:01.231Z,45.4
2022-08-03T12:34:01.217Z,45.3
2022-08-03T12:35:02.139Z,45.38
2022-08-03T12:36:01.211Z,45.48
2022-08-03T12:37:01.218Z,45.26
2022-08-03T12:38:01.201Z,45.15
2022-08-03T12:39:01.212Z,45.2
2022-08-03T12:40:05.142Z,45.01
2022-08-03T12:41:01.198Z,44.8
2022-08-03T12:42:01.192Z,45.18
2022-08-03T12:43:01.191Z,45.26
2022-08-03T12:44:01.213Z,44.98
2022-08-03T12:45:01.199Z,44.87
2022-08-03T12:46:01.191Z,45.2
2022-08-03T12:47:01.194Z,45.26
2022-08-03T12:48:01.188Z,45.17
2022-08-03T12:49:01.289Z,45.05
2022-08-03T12:50:01.201Z,44.96
2022-08-03T12:51:01.182Z,44.7
2022-08-03T12:52:06.866Z,44.89
2022-08-03T12:53:01.208Z,45.24
2022-08-03T12:54:01.184Z,45.2
2022-08-03T12:55:01.192Z,44.94